Time;durP1;ratioP1;P1;durP2;ratioP2;P2;SDS_P1;SDS_P2;PMS_P1;PMS_P2;Temp;Humidity;BMP_temperature;BMP_pressure;BME280_temperature;BME280_humidity;BME280_pressure;Samples;Min_cycle;Max_cycle;Signal;HPM_P1;HPM_P2
2024/01/05 00:00:31;;;;;;;15.70;11.45;;;;;;;7.00;72.57;94290.19;4195175;28;20082;-67
2024/01/05 00:02:33;;;;;;;14.70;10.63;;;;;;;6.87;72.52;94290.56;4204173;28;20123;-69
2024/01/05 00:04:35;;;;;;;20.02;11.70;;;;;;;6.82;73.16;94291.00;4192956;28;20052;-67
2024/01/05 00:06:37;;;;;;;15.20;11.45;;;;;;;6.87;73.48;94299.19;4195764;28;20055;-71
2024/01/05 00:08:40;;;;;;;15.57;10.90;;;;;;;6.95;73.76;94294.06;4197825;28;20056;-67
2024/01/05 00:10:41;;;;;;;14.88;11.10;;;;;;;6.97;73.38;94294.72;4194602;28;20044;-69
2024/01/05 00:12:43;;;;;;;15.80;11.40;;;;;;;7.01;73.18;94297.84;4198197;28;20428;-69
2024/01/05 00:14:45;;;;;;;16.42;12.35;;;;;;;6.90;73.46;94298.88;4205903;28;20056;-70
2024/01/05 00:16:47;;;;;;;13.32;10.60;;;;;;;6.91;73.37;94305.72;4195717;28;20075;-70
2024/01/05 00:18:49;;;;;;;15.23;10.85;;;;;;;6.90;73.39;94306.69;4205829;28;20056;-73
2024/01/05 00:20:51;;;;;;;15.77;11.55;;;;;;;6.83;73.19;94305.63;4196813;28;20049;-70
2024/01/05 00:22:53;;;;;;;13.85;10.60;;;;;;;6.69;73.54;94306.97;4203276;28;20360;-68
2024/01/05 00:24:55;;;;;;;16.08;11.05;;;;;;;6.59;73.67;94306.19;4203618;28;20206;-69
2024/01/05 00:26:59;;;;;;;13.05;10.48;;;;;;;6.58;74.16;94304.53;4200670;28;20048;-70
2024/01/05 00:29:02;;;;;;;;;;;;;;;6.66;74.80;94306.41;4200833;28;20044;-69
2024/01/05 00:31:04;;;;;;;14.15;10.65;;;;;;;6.74;74.45;94309.13;4191724;28;19926;-69
2024/01/05 00:33:06;;;;;;;14.60;10.98;;;;;;;6.82;74.17;94293.59;4204327;28;20444;-69
2024/01/05 00:35:08;;;;;;;15.07;9.95;;;;;;;6.72;73.44;94306.66;4198601;28;20060;-69
2024/01/05 00:37:09;;;;;;;16.48;10.57;;;;;;;6.54;73.67;94311.81;4206666;28;20180;-69
2024/01/05 00:39:11;;;;;;;23.45;14.95;;;;;;;6.46;74.11;94314.31;4193141;28;20045;-69
2024/01/05 00:41:14;;;;;;;13.95;7.00;;;;;;;6.33;73.78;94304.22;4203137;28;20455;-68
2024/01/05 00:43:16;;;;;;;10.95;6.60;;;;;;;6.28;73.45;94308.22;4197874;28;20059;-70
2024/01/05 00:45:17;;;;;;;8.75;4.97;;;;;;;6.47;72.84;94312.53;4206589;28;20844;-67
2024/01/05 00:47:19;;;;;;;11.45;6.45;;;;;;;6.65;71.84;94312.59;4199794;28;20044;-69
2024/01/05 00:49:21;;;;;;;10.55;6.93;;;;;;;6.82;71.26;94319.63;4207956;28;20090;-69
2024/01/05 00:51:23;;;;;;;10.98;5.40;;;;;;;6.74;71.89;94311.72;4208610;28;20063;-70
2024/01/05 00:53:25;;;;;;;11.27;6.43;;;;;;;6.79;71.74;94319.09;4206640;28;20336;-70
2024/01/05 00:55:27;;;;;;;12.35;7.03;;;;;;;6.87;71.66;94312.19;4195803;28;20048;-69
2024/01/05 00:57:29;;;;;;;9.63;7.20;;;;;;;6.89;71.62;94312.88;4203390;28;20089;-68
2024/01/05 00:59:31;;;;;;;8.65;6.38;;;;;;;6.82;71.78;94322.25;4196294;28;20079;-69
2024/01/05 01:01:33;;;;;;;8.80;6.05;;;;;;;6.55;72.40;94317.84;4200708;28;20048;-70
2024/01/05 01:03:35;;;;;;;8.90;6.10;;;;;;;6.52;72.30;94312.94;4201440;28;20052;-71
2024/01/05 01:05:37;;;;;;;9.15;6.50;;;;;;;6.49;72.61;94321.00;4207612;28;20052;-68
2024/01/05 01:07:40;;;;;;;10.55;7.00;;;;;;;6.51;73.10;94317.28;4206282;28;20411;-69
2024/01/05 01:09:42;;;;;;;10.82;6.90;;;;;;;6.62;73.60;94312.88;4199342;28;20095;-69
2024/01/05 01:11:44;;;;;;;11.02;7.20;;;;;;;6.72;73.03;94318.84;4204912;28;20467;-69
2024/01/05 01:13:46;;;;;;;13.07;7.88;;;;;;;6.46;73.80;94319.53;4200550;28;20076;-67
2024/01/05 01:15:48;;;;;;;11.15;7.32;;;;;;;6.03;74.40;94322.69;4202338;28;20059;-70
2024/01/05 01:17:50;;;;;;;10.52;7.45;;;;;;;6.06;75.63;94325.78;4192959;28;20088;-69
2024/01/05 01:19:52;;;;;;;10.55;7.10;;;;;;;6.01;74.47;94328.00;4195455;28;20075;-71
2024/01/05 01:21:54;;;;;;;10.32;7.40;;;;;;;6.06;74.77;94325.78;4200351;28;20103;-70
2024/01/05 01:23:56;;;;;;;12.18;7.35;;;;;;;6.07;74.55;94334.44;4202548;28;20054;-70
2024/01/05 01:25:58;;;;;;;10.90;7.40;;;;;;;5.96;74.83;94340.63;4207469;28;20064;-71
2024/01/05 01:28:00;;;;;;;8.38;6.72;;;;;;;5.97;75.34;94331.84;4195776;28;20121;-70
2024/01/05 01:30:02;;;;;;;10.73;7.32;;;;;;;6.05;75.56;94331.97;4204330;28;20123;-70
2024/01/05 01:32:03;;;;;;;9.82;7.50;;;;;;;6.20;75.10;94326.34;4196872;28;20053;-71
2024/01/05 01:34:05;;;;;;;10.20;7.15;;;;;;;6.35;74.80;94323.13;4200125;28;20119;-68
2024/01/05 01:36:07;;;;;;;11.85;6.65;;;;;;;6.46;74.16;94323.91;4202609;28;20060;-71
2024/01/05 01:38:09;;;;;;;10.68;7.00;;;;;;;6.49;73.77;94329.63;4210149;28;21054;-71
2024/01/05 01:40:11;;;;;;;9.88;6.75;;;;;;;6.18;73.95;94331.66;4199177;28;20395;-72
2024/01/05 01:42:13;;;;;;;10.10;7.00;;;;;;;6.22;74.30;94332.22;4196477;28;20123;-70
2024/01/05 01:44:15;;;;;;;9.13;7.15;;;;;;;6.14;73.68;94338.91;4201604;28;20060;-70
2024/01/05 01:46:17;;;;;;;9.93;6.60;;;;;;;6.17;73.34;94334.41;4201834;28;20079;-70
2024/01/05 01:48:19;;;;;;;11.00;6.47;;;;;;;6.12;74.11;94342.63;4203845;28;20041;-71
2024/01/05 01:50:24;;;;;;;9.15;6.85;;;;;;;6.20;74.63;94334.94;4205933;28;20119;-72
2024/01/05 01:52:26;;;;;;;9.45;6.70;;;;;;;6.28;74.22;94342.88;4204109;28;20060;-70
2024/01/05 01:54:32;;;;;;;10.82;6.53;;;;;;;6.39;74.16;94354.88;4194648;28;20249;-71
2024/01/05 01:56:36;;;;;;;10.75;7.18;;;;;;;6.45;73.58;94349.09;4198643;28;20058;-70
2024/01/05 01:58:39;;;;;;;9.10;7.03;;;;;;;6.49;73.55;94360.84;4205656;28;20040;-69
2024/01/05 02:00:41;;;;;;;12.07;7.75;;;;;;;6.11;73.71;94365.22;4198415;28;20099;-70
2024/01/05 02:02:43;;;;;;;8.98;7.25;;;;;;;5.97;73.71;94360.44;4201970;28;20044;-70
2024/01/05 02:04:46;;;;;;;10.35;7.05;;;;;;;5.84;74.70;94360.69;4197609;28;20178;-69
2024/01/05 02:06:48;;;;;;;12.50;7.32;;;;;;;5.86;75.51;94368.38;4199799;28;20044;-69
2024/01/05 02:08:51;;;;;;;10.60;6.80;;;;;;;5.77;75.75;94359.63;4200520;28;20064;-70
2024/01/05 02:10:53;;;;;;;10.80;7.80;;;;;;;5.85;75.49;94358.91;4207665;28;20044;-70
2024/01/05 02:12:56;;;;;;;10.90;6.78;;;;;;;5.93;75.90;94365.06;4203956;28;20177;-70
2024/01/05 02:14:58;;;;;;;11.10;7.00;;;;;;;5.71;76.21;94371.38;4199355;28;20463;-70
2024/01/05 02:17:00;;;;;;;11.50;7.35;;;;;;;5.82;75.99;94367.00;4205873;28;20055;-70
2024/01/05 02:19:02;;;;;;;11.07;7.18;;;;;;;5.91;75.71;94363.56;4207557;28;20055;-71
2024/01/05 02:21:07;;;;;;;10.43;7.65;;;;;;;6.00;75.20;94357.59;4206118;28;20076;-69
2024/01/05 02:23:31;;;;;;;11.35;7.65;;;;;;;5.95;74.67;94355.38;4195046;28;20052;-70
2024/01/05 02:25:33;;;;;;;9.80;7.47;;;;;;;5.88;74.82;94354.28;4196240;28;20776;-70
2024/01/05 02:27:36;;;;;;;12.90;8.60;;;;;;;5.73;74.68;94353.88;4204795;28;20449;-70
2024/01/05 02:29:38;;;;;;;9.80;7.60;;;;;;;5.81;75.35;94353.19;4204722;28;20762;-71
2024/01/05 02:31:40;;;;;;;12.10;9.10;;;;;;;5.98;75.79;94351.69;4206297;28;20048;-70
2024/01/05 02:33:42;;;;;;;11.23;7.90;;;;;;;6.09;75.80;94350.72;4207927;28;20083;-68
2024/01/05 02:35:44;;;;;;;14.85;8.55;;;;;;;6.12;74.95;94361.66;4200897;28;20052;-70
2024/01/05 02:37:46;;;;;;;14.27;8.25;;;;;;;6.19;74.35;94361.09;4200862;28;20398;-70
2024/01/05 02:39:47;;;;;;;12.50;9.13;;;;;;;5.80;74.60;94367.13;4199613;28;20055;-71
2024/01/05 02:41:49;;;;;;;13.20;8.65;;;;;;;5.69;75.43;94369.88;4198956;28;20047;-71
2024/01/05 02:43:51;;;;;;;11.63;8.05;;;;;;;5.59;75.74;94367.28;4207324;28;20055;-71
2024/01/05 02:45:53;;;;;;;11.43;7.65;;;;;;;5.43;76.23;94364.41;4203197;28;20051;-69
2024/01/05 02:47:55;;;;;;;10.82;7.93;;;;;;;5.42;76.48;94362.75;4200241;28;20430;-71
2024/01/05 02:49:57;;;;;;;9.10;7.78;;;;;;;5.48;76.76;94368.22;4203433;28;20105;-71
2024/01/05 02:51:59;;;;;;;11.27;7.38;;;;;;;5.54;75.96;94364.28;4208785;28;20048;-72
2024/01/05 02:54:00;;;;;;;8.43;7.13;;;;;;;5.53;76.20;94373.03;4209175;28;20063;-71
2024/01/05 02:56:03;;;;;;;10.48;7.43;;;;;;;5.67;76.59;94372.63;4194078;28;20110;-70
2024/01/05 02:58:05;;;;;;;11.88;7.88;;;;;;;5.83;75.43;94373.81;4196149;28;20048;-70
2024/01/05 03:00:07;;;;;;;9.80;7.07;;;;;;;5.69;74.46;94382.88;4199443;28;20067;-70
2024/01/05 03:02:09;;;;;;;10.88;7.32;;;;;;;5.50;74.48;94375.91;4206074;28;20490;-70
2024/01/05 03:04:11;;;;;;;10.38;7.78;;;;;;;5.51;74.70;94390.53;4196950;28;20134;-70
2024/01/05 03:06:16;;;;;;;10.48;7.63;;;;;;;5.57;75.02;94382.22;4204632;28;20052;-67
2024/01/05 03:08:19;;;;;;;11.68;8.00;;;;;;;5.63;75.30;94379.03;4207226;28;20051;-70
2024/01/05 03:10:21;;;;;;;11.65;7.20;;;;;;;5.63;75.36;94389.44;4196779;28;20051;-70
2024/01/05 03:12:23;;;;;;;10.18;8.25;;;;;;;5.56;74.89;94390.13;4201976;28;20083;-70
2024/01/05 03:14:25;;;;;;;9.73;7.55;;;;;;;5.20;76.17;94398.41;4200456;28;20043;-71
2024/01/05 03:16:27;;;;;;;11.20;8.20;;;;;;;5.23;76.68;94402.53;4204234;28;20044;-69
2024/01/05 03:18:28;;;;;;;10.05;7.32;;;;;;;5.35;76.75;94404.03;4208378;28;20127;-70
2024/01/05 03:20:30;;;;;;;10.48;7.97;;;;;;;5.11;76.66;94405.22;4199592;28;20040;-69
2024/01/05 03:22:32;;;;;;;12.32;8.48;;;;;;;5.04;77.14;94405.91;4196032;28;20060;-69
2024/01/05 03:24:34;;;;;;;12.23;8.55;;;;;;;5.06;76.72;94404.00;4206795;28;20461;-71
2024/01/05 03:26:36;;;;;;;9.57;8.52;;;;;;;5.16;76.85;94417.81;4194524;28;20151;-70
2024/01/05 03:28:39;;;;;;;10.00;8.30;;;;;;;5.32;77.34;94418.13;4201763;28;20094;-69
2024/01/05 03:30:42;;;;;;;14.55;8.73;;;;;;;5.53;76.17;94419.81;4203570;28;20075;-70
2024/01/05 03:32:44;;;;;;;11.32;8.60;;;;;;;5.65;75.42;94433.47;4200382;28;20049;-70
2024/01/05 03:34:45;;;;;;;11.07;9.30;;;;;;;5.79;75.61;94433.09;4197739;28;20070;-70
2024/01/05 03:36:47;;;;;;;11.95;8.75;;;;;;;5.86;74.54;94425.56;4208042;28;20487;-71
2024/01/05 03:38:49;;;;;;;13.02;9.30;;;;;;;5.83;73.97;94431.03;4207072;28;20474;-70
2024/01/05 03:40:51;;;;;;;16.65;10.77;;;;;;;5.68;74.07;94439.25;4205982;28;20125;-70
2024/01/05 03:42:53;;;;;;;12.45;9.80;;;;;;;5.60;73.92;94444.28;4200356;28;20207;-71
2024/01/05 03:44:55;;;;;;;14.40;10.38;;;;;;;5.62;73.91;94444.97;4194706;28;20493;-70
2024/01/05 03:46:57;;;;;;;11.75;9.75;;;;;;;5.51;73.52;94438.13;4192268;28;20131;-69
2024/01/05 03:48:58;;;;;;;12.90;10.07;;;;;;;5.58;75.06;94443.59;4201077;28;20386;-70
2024/01/05 03:51:00;;;;;;;11.40;9.70;;;;;;;5.70;74.84;94442.53;4208043;28;20071;-68
2024/01/05 03:53:03;;;;;;;14.63;9.73;;;;;;;5.81;74.62;94443.34;4204110;28;20044;-71
2024/01/05 03:55:04;;;;;;;13.82;9.07;;;;;;;5.85;74.05;94445.56;4199621;28;21264;-69
2024/01/05 03:57:06;;;;;;;14.15;9.13;;;;;;;5.91;73.56;94444.97;4191569;28;20041;-69
2024/01/05 03:59:08;;;;;;;12.98;10.00;;;;;;;5.92;73.47;94445.81;4204605;28;20067;-69
2024/01/05 04:01:11;;;;;;;12.63;9.27;;;;;;;5.80;73.17;94450.31;4204940;28;20434;-70
2024/01/05 04:03:13;;;;;;;13.32;9.32;;;;;;;5.76;73.12;94451.53;4197727;28;20056;-70
2024/01/05 04:05:15;;;;;;;12.05;9.60;;;;;;;5.69;73.73;94447.84;4199650;28;20100;-67
2024/01/05 04:07:16;;;;;;;12.55;10.10;;;;;;;5.65;73.40;94449.06;4203588;28;20480;-70
2024/01/05 04:09:19;;;;;;;12.00;10.00;;;;;;;5.52;74.02;94457.13;4196163;28;20048;-71
2024/01/05 04:11:21;;;;;;;14.10;9.20;;;;;;;5.53;74.69;94456.19;4199890;28;20510;-70
2024/01/05 04:13:23;;;;;;;13.13;9.45;;;;;;;5.60;74.55;94459.88;4207035;28;20052;-70
2024/01/05 04:15:25;;;;;;;17.48;9.70;;;;;;;5.78;75.13;94474.81;4199209;28;20579;-71
2024/01/05 04:17:27;;;;;;;12.10;8.32;;;;;;;5.69;73.79;94456.47;4195878;28;20068;-69
2024/01/05 04:19:29;;;;;;;12.10;9.57;;;;;;;5.77;73.97;94453.19;4204603;28;20056;-71
2024/01/05 04:21:32;;;;;;;13.55;9.73;;;;;;;5.79;73.10;94458.28;4208811;28;20036;-71
2024/01/05 04:23:34;;;;;;;11.05;8.77;;;;;;;5.83;72.71;94460.47;4194641;28;20106;-70
2024/01/05 04:25:35;;;;;;;10.15;8.63;;;;;;;5.81;72.75;94461.53;4195478;28;20052;-71
2024/01/05 04:27:38;;;;;;;14.23;9.18;;;;;;;5.74;72.61;94451.69;4193235;28;20128;-70
2024/01/05 04:29:41;;;;;;;11.60;8.90;;;;;;;5.75;73.25;94463.72;4207715;28;20044;-69
2024/01/05 04:31:43;;;;;;;14.10;9.00;;;;;;;5.66;72.95;94469.75;4200245;28;20040;-71
2024/01/05 04:33:44;;;;;;;12.15;8.90;;;;;;;5.49;75.23;94473.00;4206711;28;20078;-70
2024/01/05 04:35:47;;;;;;;12.88;9.43;;;;;;;5.51;75.12;94473.69;4206417;28;20048;-69
2024/01/05 04:37:49;;;;;;;13.40;9.00;;;;;;;5.64;74.96;94476.84;4193308;28;20044;-70
2024/01/05 04:39:51;;;;;;;12.95;8.65;;;;;;;5.57;73.54;94475.75;4199140;28;20060;-70
2024/01/05 04:41:52;;;;;;;13.18;8.15;;;;;;;5.42;74.07;94485.69;4194194;28;20052;-69
2024/01/05 04:43:54;;;;;;;11.60;7.70;;;;;;;5.39;73.57;94492.94;4203313;28;20055;-69
2024/01/05 04:45:56;;;;;;;14.13;8.65;;;;;;;5.45;74.25;94493.22;4205777;28;20048;-72
2024/01/05 04:47:58;;;;;;;12.30;8.25;;;;;;;5.53;73.98;94490.78;4208188;28;20066;-70
2024/01/05 04:50:00;;;;;;;11.77;8.00;;;;;;;5.66;73.98;94493.13;4194241;28;20718;-70
2024/01/05 04:52:02;;;;;;;11.07;8.73;;;;;;;5.77;73.74;94493.97;4193530;28;20065;-71
2024/01/05 04:54:04;;;;;;;11.25;8.52;;;;;;;5.85;73.50;94505.34;4193663;28;20143;-72
2024/01/05 04:56:06;;;;;;;10.80;8.68;;;;;;;5.88;72.63;94494.66;4195540;28;20055;-71
2024/01/05 04:58:08;;;;;;;11.82;8.73;;;;;;;5.93;72.94;94499.44;4204152;28;20075;-71
2024/01/05 05:00:10;;;;;;;16.60;8.90;;;;;;;5.90;71.62;94504.94;4203958;28;20113;-69
2024/01/05 05:02:12;;;;;;;12.90;9.13;;;;;;;5.71;72.15;94506.53;4206592;28;20060;-72
2024/01/05 05:04:16;;;;;;;12.02;9.35;;;;;;;5.69;72.26;94511.03;4211863;28;20482;-69
2024/01/05 05:06:18;;;;;;;13.68;9.55;;;;;;;5.59;71.77;94512.78;4198362;28;20079;-72
2024/01/05 05:08:20;;;;;;;14.38;10.00;;;;;;;5.50;72.82;94509.22;4201023;28;20052;-70
2024/01/05 05:10:22;;;;;;;14.15;8.90;;;;;;;5.59;73.46;94512.78;4205412;28;20044;-72
2024/01/05 05:12:24;;;;;;;13.68;9.07;;;;;;;5.65;72.86;94521.84;4198173;28;20471;-72
2024/01/05 05:14:26;;;;;;;13.95;10.20;;;;;;;5.70;73.56;94530.91;4197939;28;20040;-70
2024/01/05 05:16:28;;;;;;;14.45;9.77;;;;;;;5.74;73.48;94527.06;4207045;28;20479;-71
2024/01/05 05:18:30;;;;;;;11.93;10.23;;;;;;;5.82;72.67;94526.38;4205671;28;20101;-70
2024/01/05 05:20:32;;;;;;;11.80;10.18;;;;;;;5.72;72.43;94538.53;4190604;28;20068;-72
2024/01/05 05:22:34;;;;;;;15.18;10.70;;;;;;;5.60;72.45;94537.84;4196456;28;20059;-70
2024/01/05 05:24:36;;;;;;;14.90;10.60;;;;;;;5.64;72.64;94536.63;4210056;28;20117;-71
2024/01/05 05:26:38;;;;;;;14.02;10.27;;;;;;;5.59;72.24;94543.16;4202074;28;20495;-71
2024/01/05 05:28:40;;;;;;;16.17;10.35;;;;;;;5.52;72.83;94540.28;4204566;28;20209;-71
2024/01/05 05:30:43;;;;;;;13.20;9.73;;;;;;;5.55;73.19;94542.63;4210835;28;20058;-70
2024/01/05 05:32:45;;;;;;;11.70;9.40;;;;;;;5.65;73.04;94538.25;4204908;28;20044;-70
2024/01/05 05:34:46;;;;;;;11.85;9.13;;;;;;;5.66;72.88;94544.28;4199481;28;20086;-71
2024/01/05 05:36:48;;;;;;;12.10;9.13;;;;;;;5.67;73.10;94541.53;4207564;28;20056;-71
2024/01/05 05:38:50;;;;;;;16.13;10.02;;;;;;;5.67;72.99;94541.53;4210950;28;20145;-71
2024/01/05 05:40:52;;;;;;;13.27;9.10;;;;;;;5.59;72.37;94546.56;4202357;28;20053;-71
2024/01/05 05:42:55;;;;;;;13.40;10.10;;;;;;;5.47;72.82;94543.28;4207085;28;20051;-71
2024/01/05 05:44:57;;;;;;;13.82;9.90;;;;;;;5.41;72.75;94550.78;4200308;28;20045;-73
2024/01/05 05:46:59;;;;;;;15.60;10.45;;;;;;;5.34;73.51;94543.50;4199011;28;20113;-70
2024/01/05 05:49:01;;;;;;;14.32;10.25;;;;;;;5.44;73.50;94555.69;4202699;28;20437;-69
2024/01/05 05:51:04;;;;;;;16.73;9.82;;;;;;;5.48;73.74;94552.69;4201431;28;20520;-71
2024/01/05 05:53:06;;;;;;;13.57;10.40;;;;;;;5.57;73.32;94563.25;4209932;28;20135;-71
2024/01/05 05:55:12;;;;;;;14.07;9.00;;;;;;;5.67;73.09;94561.53;4205351;28;20491;-70
2024/01/05 05:57:14;;;;;;;13.43;9.07;;;;;;;5.67;72.94;94561.53;4203432;28;20102;-69
2024/01/05 05:59:16;;;;;;;11.27;9.15;;;;;;;5.73;72.42;94571.38;4197009;28;20052;-71
2024/01/05 06:01:18;;;;;;;13.30;9.27;;;;;;;5.73;72.09;94567.00;4201771;28;20048;-73
2024/01/05 06:03:22;;;;;;;13.07;10.15;;;;;;;5.76;72.47;94563.31;4198723;28;20131;-69
2024/01/05 06:05:24;;;;;;;13.45;9.90;;;;;;;5.78;72.43;94576.19;4207070;28;20105;-68
2024/01/05 06:07:26;;;;;;;15.30;10.02;;;;;;;5.83;71.81;94561.84;4204380;28;20056;-70
2024/01/05 06:09:28;;;;;;;11.43;9.30;;;;;;;5.83;71.95;94561.84;4209716;28;20044;-69
2024/01/05 06:11:30;;;;;;;12.65;9.35;;;;;;;5.75;72.14;94575.50;4199641;28;20044;-71
2024/01/05 06:13:32;;;;;;;15.57;8.90;;;;;;;5.78;71.54;94573.59;4204819;28;20221;-72
2024/01/05 06:15:37;;;;;;;15.52;8.57;;;;;;;5.75;71.10;94580.69;4209743;28;20139;-70
2024/01/05 06:17:39;;;;;;;12.00;9.32;;;;;;;5.80;71.64;94575.09;4195045;28;20064;-71
2024/01/05 06:19:41;;;;;;;12.90;8.70;;;;;;;5.86;71.83;94560.75;4194330;28;20396;-70
2024/01/05 06:21:42;;;;;;;11.95;9.00;;;;;;;5.89;71.54;94560.47;4200421;28;20367;-71
2024/01/05 06:23:44;;;;;;;14.25;9.10;;;;;;;6.02;72.37;94562.84;4206929;28;20052;-70
2024/01/05 06:25:46;;;;;;;12.23;8.88;;;;;;;6.13;71.24;94568.78;4195387;28;20509;-73
2024/01/05 06:27:48;;;;;;;13.55;9.35;;;;;;;6.56;70.88;94574.53;4201124;28;20055;-71
2024/01/05 06:29:50;;;;;;;14.40;8.70;;;;;;;6.82;69.60;94571.34;4199983;28;20052;-70
2024/01/05 06:31:52;;;;;;;11.48;8.82;;;;;;;6.81;68.26;94575.75;4202802;28;20512;-69
2024/01/05 06:33:54;;;;;;;16.05;10.85;;;;;;;6.60;68.85;94573.28;4203895;28;20048;-71
2024/01/05 06:35:59;;;;;;;13.88;10.23;;;;;;;6.45;69.83;94583.28;4203734;28;20044;-72
2024/01/05 06:38:01;;;;;;;13.77;9.98;;;;;;;6.60;69.65;94588.91;4203289;28;20047;-73
2024/01/05 06:40:03;;;;;;;12.50;8.80;;;;;;;7.08;69.38;94585.44;4207716;28;20383;-69
2024/01/05 06:42:04;;;;;;;16.00;9.63;;;;;;;7.63;67.66;94582.09;4201101;28;20040;-70
2024/01/05 06:44:09;;;;;;;11.38;7.65;;;;;;;8.13;65.33;94581.72;4208994;28;20062;-70
2024/01/05 06:46:11;;;;;;;10.55;7.97;;;;;;;8.48;65.41;94582.75;4208632;28;20067;-71
2024/01/05 06:48:13;;;;;;;13.13;8.52;;;;;;;8.70;64.42;94588.47;4198237;28;20098;-70
2024/01/05 06:50:15;;;;;;;13.80;7.75;;;;;;;8.57;62.81;94574.00;4206010;28;20055;-72
2024/01/05 06:52:17;;;;;;;17.10;8.48;;;;;;;8.39;63.25;94581.81;4207422;28;20120;-71
2024/01/05 06:54:19;;;;;;;14.10;8.85;;;;;;;8.28;63.29;94581.19;4202896;28;20047;-70
2024/01/05 06:56:21;;;;;;;13.00;8.30;;;;;;;7.99;63.49;94576.97;4198039;28;20047;-70
2024/01/05 06:58:23;;;;;;;11.10;7.72;;;;;;;7.94;65.06;94574.00;4204804;28;20054;-69
2024/01/05 07:00:25;;;;;;;14.98;9.10;;;;;;;7.87;66.10;94580.75;4198022;28;20055;-71
2024/01/05 07:02:28;;;;;;;13.27;8.90;;;;;;;7.92;66.03;94583.75;4193937;28;20197;-72
2024/01/05 07:04:30;;;;;;;12.48;8.27;;;;;;;7.90;66.35;94583.91;4199405;28;20129;-69
2024/01/05 07:06:32;;;;;;;13.15;7.90;;;;;;;7.93;66.17;94582.78;4197650;28;20550;-70
2024/01/05 07:08:34;;;;;;;12.02;7.60;;;;;;;8.01;65.81;94577.66;4201962;28;20048;-71
2024/01/05 07:10:36;;;;;;;9.07;6.00;;;;;;;8.10;65.34;94570.75;4204432;28;20116;-71
2024/01/05 07:12:38;;;;;;;11.10;6.35;;;;;;;8.18;64.95;94569.03;4192666;28;20523;-71
2024/01/05 07:14:40;;;;;;;11.53;6.37;;;;;;;8.25;64.25;94573.66;4198754;28;20075;-71
2024/01/05 07:16:44;;;;;;;13.45;6.82;;;;;;;8.28;64.09;94570.75;4200532;28;20336;-70
2024/01/05 07:18:48;;;;;;;12.20;7.07;;;;;;;8.26;64.40;94573.53;4194189;28;20135;-71
2024/01/05 07:20:50;;;;;;;13.07;7.28;;;;;;;8.26;64.17;94575.28;4205516;28;20044;-72
2024/01/05 07:22:52;;;;;;;22.30;10.98;;;;;;;8.08;63.88;94576.09;4201063;28;20044;-70
2024/01/05 07:24:54;;;;;;;19.27;9.68;;;;;;;8.06;65.09;94578.03;4197833;28;20608;-71
2024/01/05 07:26:55;;;;;;;16.60;7.75;;;;;;;8.13;64.55;94573.88;4204205;28;20051;-72
2024/01/05 07:28:58;;;;;;;12.50;6.07;;;;;;;8.21;64.60;94573.13;4210194;28;20070;-78
2024/01/05 07:31:03;;;;;;;9.57;5.07;;;;;;;8.31;64.21;94578.31;4205864;28;20123;-73
2024/01/05 07:33:05;;;;;;;14.55;7.80;;;;;;;8.01;65.66;94577.66;4204322;28;20048;-71
2024/01/05 07:35:07;;;;;;;12.82;7.50;;;;;;;7.52;65.53;94569.25;4205680;28;20048;-75
2024/01/05 07:37:09;;;;;;;13.25;7.32;;;;;;;7.51;66.30;94583.25;4198339;28;20071;-80
2024/01/05 07:39:12;;;;;;;12.13;6.45;;;;;;;7.50;65.40;94584.22;4196184;28;20055;-76
2024/01/05 07:41:17;;;;;;;13.65;6.00;;;;;;;7.46;66.20;94582.84;4205234;28;20119;-78
2024/01/05 07:43:19;;;;;;;10.77;6.78;;;;;;;7.08;66.48;94582.84;4203165;28;20118;-74
2024/01/05 07:45:21;;;;;;;13.23;7.35;;;;;;;6.96;67.66;94587.38;4207965;28;20109;-74
2024/01/05 07:47:23;;;;;;;15.95;6.03;;;;;;;7.04;67.57;94586.69;4202607;28;20048;-74
2024/01/05 07:49:25;;;;;;;17.25;6.88;;;;;;;7.13;67.26;94574.59;4196194;28;20127;-75
2024/01/05 07:51:28;;;;;;;11.23;6.63;;;;;;;7.34;67.49;94582.22;4200748;28;20052;-73
2024/01/05 07:53:29;;;;;;;10.65;5.45;;;;;;;7.57;66.59;94578.28;4204013;28;20467;-73
2024/01/05 07:55:31;;;;;;;10.77;5.70;;;;;;;7.78;66.07;94585.88;4198171;28;20056;-71
2024/01/05 07:57:33;;;;;;;11.45;6.35;;;;;;;8.01;65.24;94575.06;4207084;28;20058;-70
2024/01/05 07:59:35;;;;;;;15.23;6.32;;;;;;;8.16;64.36;94578.00;4204032;28;20049;-73
2024/01/05 08:01:37;;;;;;;12.68;7.00;;;;;;;8.14;64.59;94582.53;4204647;28;20444;-72
2024/01/05 08:03:39;;;;;;;11.35;5.65;;;;;;;8.21;64.64;94587.00;4195515;28;20515;-71
2024/01/05 08:05:41;;;;;;;15.90;6.38;;;;;;;8.43;64.10;94584.97;4201245;28;20157;-69
2024/01/05 08:07:48;;;;;;;11.20;6.30;;;;;;;8.55;63.82;94585.56;4194696;28;20048;-68
2024/01/05 08:09:53;;;;;;;12.27;6.22;;;;;;;8.65;64.25;94581.09;4192450;28;20040;-70
2024/01/05 08:11:55;;;;;;;9.73;6.07;;;;;;;8.87;64.65;94594.66;4188858;28;20070;-71
2024/01/05 08:13:57;;;;;;;13.77;7.15;;;;;;;8.93;62.93;94589.66;4202725;28;20044;-70
2024/01/05 08:15:59;;;;;;;8.80;5.63;;;;;;;8.90;62.29;94586.50;4202459;28;20044;-71
2024/01/05 08:18:02;;;;;;;9.45;5.50;;;;;;;8.72;62.20;94586.53;4193746;28;20183;-72
2024/01/05 08:20:05;;;;;;;;;;;;;;;8.65;62.88;94585.47;4181978;28;20048;-72
2024/01/05 08:22:07;;;;;;;12.73;5.38;;;;;;;8.68;62.78;94587.81;4201352;28;20090;-70
2024/01/05 08:24:09;;;;;;;13.52;5.63;;;;;;;8.47;62.71;94588.91;4208260;28;20146;-72
2024/01/05 08:26:16;;;;;;;16.15;9.05;;;;;;;8.44;63.75;94599.66;4191617;28;20451;-71
2024/01/05 08:28:18;;;;;;;14.50;8.40;;;;;;;8.58;64.25;94598.31;4198903;28;20048;-70
2024/01/05 08:30:21;;;;;;;11.25;6.18;;;;;;;8.79;63.67;94598.84;4207960;28;20068;-70
2024/01/05 08:32:23;;;;;;;10.68;6.15;;;;;;;8.91;62.99;94601.22;4196241;28;20048;-71
2024/01/05 08:34:25;;;;;;;17.00;6.25;;;;;;;9.02;63.22;94607.03;4201861;28;20511;-69
2024/01/05 08:36:28;;;;;;;14.68;5.85;;;;;;;9.08;62.17;94607.38;4201727;28;20048;-73
2024/01/05 08:38:30;;;;;;;13.50;5.93;;;;;;;9.08;62.08;94613.44;4204851;28;20130;-72
2024/01/05 08:40:32;;;;;;;13.75;6.95;;;;;;;9.08;61.41;94602.16;4210823;28;20079;-71
2024/01/05 08:42:34;;;;;;;20.27;8.88;;;;;;;9.17;61.57;94606.50;4206799;28;20512;-72
2024/01/05 08:44:36;;;;;;;12.32;6.22;;;;;;;9.25;61.18;94609.16;4200262;28;20135;-71
2024/01/05 08:46:38;;;;;;;14.05;6.47;;;;;;;9.43;61.54;94604.69;4209735;28;20052;-71
2024/01/05 08:48:40;;;;;;;13.95;5.35;;;;;;;9.48;61.09;94598.19;4210136;28;20101;-72
2024/01/05 08:50:42;;;;;;;11.23;5.65;;;;;;;9.27;61.59;94602.00;4207521;28;20048;-72
2024/01/05 08:52:44;;;;;;;15.57;6.82;;;;;;;9.31;62.29;94600.69;4201728;28;20099;-72
2024/01/05 08:54:46;;;;;;;12.93;6.57;;;;;;;9.30;62.23;94603.47;4194763;28;20480;-72
2024/01/05 08:56:51;;;;;;;12.68;6.30;;;;;;;9.09;62.17;94604.63;4195392;28;20129;-73
2024/01/05 08:58:53;;;;;;;13.57;6.72;;;;;;;8.91;62.03;94591.59;4201953;28;20048;-69
2024/01/05 09:00:54;;;;;;;9.93;5.65;;;;;;;8.92;62.35;94593.22;4208910;28;20040;-72
2024/01/05 09:02:57;;;;;;;14.65;5.50;;;;;;;9.17;61.82;94590.81;4215217;28;20040;-68
2024/01/05 09:04:59;;;;;;;11.70;5.00;;;;;;;9.11;61.37;94591.41;4204924;28;20052;-72
2024/01/05 09:07:02;;;;;;;15.27;5.40;;;;;;;9.09;61.90;94593.34;4209916;28;20260;-67
2024/01/05 09:09:04;;;;;;;12.13;5.85;;;;;;;9.22;61.24;94584.13;4206929;28;20099;-68
2024/01/05 09:11:06;;;;;;;10.65;6.20;;;;;;;9.51;60.91;94579.59;4208459;28;20066;-66
2024/01/05 09:13:08;;;;;;;8.38;5.25;;;;;;;9.72;59.42;94580.00;4198669;28;20083;-66
2024/01/05 09:15:10;;;;;;;9.23;5.70;;;;;;;9.73;59.70;94578.22;4195799;28;20060;-66
2024/01/05 09:17:12;;;;;;;10.05;5.75;;;;;;;9.55;59.79;94586.13;4199298;28;20061;-65
2024/01/05 09:19:14;;;;;;;12.52;6.15;;;;;;;9.77;59.88;94593.44;4205646;28;20057;-71
2024/01/05 09:21:17;;;;;;;11.68;6.25;;;;;;;10.08;59.69;94586.84;4204849;28;20044;-67
2024/01/05 09:23:19;;;;;;;12.25;6.38;;;;;;;9.81;59.53;94586.09;4202741;28;20048;-70
2024/01/05 09:25:22;;;;;;;17.58;6.72;;;;;;;9.72;59.64;94585.25;4200057;28;20051;-69
2024/01/05 09:27:24;;;;;;;13.48;6.47;;;;;;;9.68;59.78;94586.53;4201987;28;20051;-67
2024/01/05 09:29:26;;;;;;;13.10;6.95;;;;;;;9.71;59.06;94583.59;4201136;28;20505;-69
2024/01/05 09:31:27;;;;;;;20.67;9.35;;;;;;;9.91;58.96;94588.56;4205400;28;20047;-68
2024/01/05 09:33:30;;;;;;;13.35;5.82;;;;;;;9.79;59.64;94578.41;4203297;28;20114;-68
2024/01/05 09:35:32;;;;;;;12.02;5.90;;;;;;;9.75;58.91;94587.53;4202426;28;20045;-76